Downloads

-JavaCPC -demo -emu -j-cpc_ani -tools 0-9 A B C D E F G H I J K L M N O P Q R S T U V W X Y Z ZZZ_UNK roms
FILEDATESIZEDLs
KTris by Richard Wilson (PD).zip 2017-04-21 16:14 2 Kb160
Kaiser (G) (19xx).zip 2017-04-21 16:13 91 Kb177
Kane & Nebulus & Renaud - Marche a l'Ombre.zip 2017-04-21 16:13 95 Kb95
Kane (UK) (1986).zip 2017-04-21 16:13 28 Kb149
Kane (UK) (1986) [a1].zip 2017-04-21 16:13 80 Kb163
Kane (UK) (1986) [a2].zip 2017-04-21 16:13 38 Kb146
Kane (UK) (1986) [t1].zip 2017-04-21 16:13 38 Kb162
Karateka (F) (1986).zip 2017-04-21 16:13 50 Kb155
Karateka (F) (1986) [f1].zip 2017-04-21 16:13 50 Kb156
Karateka (F) (1986) [t1].zip 2017-04-21 16:13 50 Kb158
Karateka (F) (1990).zip 2017-04-21 16:13 49 Kb157
Karateka (F) (1990) [t1].zip 2017-04-21 16:13 49 Kb150
Karateka (F).dsk 2017-04-21 16:13 192 Kb160
Karl's Treasure Hunt (UK) (1984).zip 2017-04-21 16:13 11 Kb152
Karl's Treasure Hunt (UK) (1984) [a1].zip 2017-04-21 16:13 84 Kb152
Karl's Treasure Hunt (UK) (1984) [a2].zip 2017-04-21 16:13 11 Kb147
Karnov (E) - Disk 1A.dsk 2017-04-21 16:13 214 Kb149
Karnov (E) - Disk 1B.dsk 2017-04-21 16:13 214 Kb146
Karnov (UK) (1988) (Disk 1 of 2).zip 2017-04-21 16:13 73 Kb143
Karnov (UK) (1988) (Disk 1 of 2) [a1].zip 2017-04-21 16:13 56 Kb140
Karnov (UK) (1988) (Disk 1 of 2) [t1].zip 2017-04-21 16:13 159 Kb156
Karnov (UK) (1988) (Disk 1 of 2) [t2].zip 2017-04-21 16:13 73 Kb139
Karnov (UK) (1988) (Disk 2 of 2).zip 2017-04-21 16:13 62 Kb149
Karnov (UK) (1988) (Disk 2 of 2) [a1].zip 2017-04-21 16:13 105 Kb147
Karnov (UK) (1988) (Disk 2 of 2) [t2].zip 2017-04-21 16:13 62 Kb177
Kat Trap (E).dsk 2017-04-21 16:13 91 Kb146
Kat Trap (UK) (1987).zip 2017-04-21 16:13 34 Kb152
Keep Yourself Alive (F) (1987).zip 2017-04-21 16:13 19 Kb153
Kenny Dalglish Soccer Manager (E).cdt 2017-04-21 16:13 57 Kb161
Kenny Dalglish Soccer Manager (UK) (1989).zip 2017-04-21 16:13 25 Kb149
Kenny Dalglish Soccer Match (UK) (1990).zip 2017-04-21 16:13 29 Kb150
Kentilla (UK) (1985).zip 2017-04-21 16:13 23 Kb149
Kentilla (UK) (1985) [a1].zip 2017-04-21 16:13 30 Kb151
Kentucky Racing (E).cdt 2017-04-21 16:13 45 Kb155
Kentucky Racing (UK) (1990).zip 2017-04-21 16:13 24 Kb143
Kentucky Racing (UK) (1990) [f1].zip 2017-04-21 16:13 24 Kb154
Kessia (F) (19xx).zip 2017-04-21 16:13 72 Kb146
Kettle (E).dsk 2017-04-21 16:13 193 Kb142
Kettle (UK) (1986).zip 2017-04-21 16:13 21 Kb155
Kevin Thacker's CPC Guide (UK) (19xx) (PD) (Disk 1 of 2).zip 2017-04-21 16:13 47 Kb141
Kevin Thacker's CPC Guide (UK) (19xx) (PD) (Disk 2 of 2).zip 2017-04-21 16:13 41 Kb145
Key Factor, The (UK) (1985).zip 2017-04-21 16:13 13 Kb149
Kick Off (UK,F,G,S,I) (1990).zip 2017-04-21 16:13 27 Kb148
Kick Off (UK,F,G,S,I) (1990) [a1].zip 2017-04-21 16:13 131 Kb147
Kick Off (UK,F,G,S,I) (1990) [a2].zip 2017-04-21 16:13 31 Kb140
Kick Off 2 (E) - Disk 1A.dsk 2017-04-21 16:13 178 Kb161
Kick Off 2 (E) - Disk 1B.dsk 2017-04-21 16:13 178 Kb153
Kick Off 2 (F) (1990).zip 2017-04-21 16:13 68 Kb148
Kick Off 2 (F) (1990) [a1].zip 2017-04-21 16:13 68 Kb152
Kikstart II (UK) (1988).zip 2017-04-21 16:13 24 Kb150
Kikstart II (UK) (1988) [a1].zip 2017-04-21 16:13 23 Kb158
Killapede (UK) (1986).zip 2017-04-21 16:13 26 Kb147
Killapede (UK) (1986) [a1].zip 2017-04-21 16:13 26 Kb145
Killapede (UK) (1986) [a2].zip 2017-04-21 16:13 32 Kb159
Killapede (UK) (1986) [a3].zip 2017-04-21 16:13 30 Kb178
Killed Until Dead (UK) (1987) (Disk 1 of 2).zip 2017-04-21 16:13 50 Kb140
Killed Until Dead (UK) (1987) (Disk 2 of 2).zip 2017-04-21 16:13 62 Kb146
Killer Ball (UK) (1991).zip 2017-04-21 16:14 103 Kb147
Killer Ball (UK) (1991) [a1].zip 2017-04-21 16:13 103 Kb147
Killer Ball (UK) (1991) [a2].zip 2017-04-21 16:13 76 Kb145
Killer Ball (UK) (1991) [a3].zip 2017-04-21 16:13 96 Kb143
Killer Cobra (E).cdt 2017-04-21 16:14 49 Kb146
Killer Cobra (UK) (1987).zip 2017-04-21 16:14 27 Kb149
Killer Cobra (UK) (1987) [a1].zip 2017-04-21 16:14 27 Kb148
Killer Cobra (UK) (1987) [a2].zip 2017-04-21 16:14 31 Kb143
Killer Gorilla & Knight Lore & Laserwarp & Molecule Man & Zaxx (F).zip 2017-04-21 16:14 82 Kb97
Killer Gorilla (UK) (1984).zip 2017-04-21 16:14 19 Kb150
Killer Gorilla (UK) (1984) [a1].zip 2017-04-21 16:14 19 Kb156
Killer Gorilla (UK) (1984) [a2].zip 2017-04-21 16:14 15 Kb158
Killer Gorilla (UK) (1984) [a3].zip 2017-04-21 16:14 18 Kb151
Killer Gorilla (UK) (1984) [b1].zip 2017-04-21 16:14 19 Kb150
Killer Gorilla (UK) (1984) [b2].zip 2017-04-21 16:14 19 Kb150
Killer Ring (UK) (1987).zip 2017-04-21 16:14 16 Kb153
Killer Ring (UK) (1987) [a1].zip 2017-04-21 16:14 16 Kb154
Kiloroid (UK) (19xx).zip 2017-04-21 16:14 2 Kb145
Kim (F) (1986).zip 2017-04-21 16:14 9 Kb148
Kinetic (UK) (1987).zip 2017-04-21 16:14 35 Kb146
Kinetic (UK) (1987) [a1].zip 2017-04-21 16:14 36 Kb152
Kinetic (UK) (1987) [a2].zip 2017-04-21 16:14 35 Kb156
Kinetik (E).dsk 2017-04-21 16:14 195 Kb163
Kingdom of Hamil (UK) (1987).zip 2017-04-21 16:14 57 Kb145
Kingdoms (UK) (1985).zip 2017-04-21 16:14 5 Kb147
Kit de Telechargement - Telecharge Amstrad CPC (F).dsk 2017-04-21 16:14 217 Kb154
Kit de Telechargement pour Amstrad CPC (F).dsk 2017-04-21 16:14 191 Kb170
Klax & Meynaumede (F) & Nervous Break Down (F) & Skweek.zip 2017-04-21 16:14 97 Kb96
Klax (E).dsk 2017-04-21 16:14 172 Kb149
Klax (UK) (1990) (CPM).zip 2017-04-21 16:14 44 Kb143
Klax (UK) (1990) (CPM) [a1].zip 2017-04-21 16:14 44 Kb159
Klax (UK) (1990) (CPM Version).zip 2017-04-21 16:14 43 Kb143
Klax (UK) (1990) (CPM Version) [a1].zip 2017-04-21 16:14 43 Kb151
Klax (UK) (1990) (Cart).zip 2017-04-21 16:14 41 Kb156
Klax (UK) (1990).zip 2017-04-21 16:14 42 Kb143
Klax (UK) (1990) [a1].zip 2017-04-21 16:14 42 Kb156
Klax (UK) (1990) [h1].zip 2017-04-21 16:14 52 Kb145
Klax (UK) (1990) [h2].zip 2017-04-21 16:14 54 Kb150
Knaves and thou Prisoners (UK) (19xx).zip 2017-04-21 16:14 8 Kb143
Knight Force (F) (1989) (Disk 1 of 2).zip 2017-04-21 16:14 54 Kb148
Knight Force (F) (1989) (Disk 1 of 2) [t1].zip 2017-04-21 16:14 55 Kb144
Knight Force (F) (1989) (Disk 1 of 2) [t2] & Power Drift.zip 2017-04-21 16:14 108 Kb88
Knight Force (F) (1989) (Disk 1 of 2) [t2].zip 2017-04-21 16:14 75 Kb141
Knight Force (F) (1989) (Disk 2 of 2).zip 2017-04-21 16:14 76 Kb150
Knight Force (F) - Disk 1A.dsk 2017-04-21 16:14 456 Kb151
Knight Force (F) - Disk 1B.dsk 2017-04-21 16:14 627 Kb151
Knight Games (E) - Side A.cdt 2017-04-21 16:14 166 Kb157
Knight Games (E) - Side B.cdt 2017-04-21 16:14 142 Kb144
Knight Games (UK) (1986) (Disk 1 of 2).zip 2017-04-21 16:14 88 Kb151
Knight Games (UK) (1986) (Disk 1 of 2) [a1].zip 2017-04-21 16:14 83 Kb143
Knight Games (UK) (1986) (Disk 1 of 2) [a2].zip 2017-04-21 16:14 83 Kb141
Knight Games (UK) (1986) (Disk 1 of 2) [a3].zip 2017-04-21 16:14 103 Kb134
Knight Games (UK) (1986) (Disk 2 of 2).zip 2017-04-21 16:14 94 Kb151
Knight Games (UK) (1986) (Disk 2 of 2) [a1].zip 2017-04-21 16:14 76 Kb143
Knight Games (UK) (1986) (Disk 2 of 2) [a2].zip 2017-04-21 16:14 79 Kb139
Knight Games (UK) (1986) (Disk 2 of 2) [a3].zip 2017-04-21 16:14 109 Kb141
Knight Games (UK) (1986) [f1][t1].zip 2017-04-21 16:14 179 Kb148
Knight Lore (E).cdt 2017-04-21 16:14 42 Kb149
Knight Lore (UK) (1984).zip 2017-04-21 16:14 25 Kb153
Knight Lore (UK) (1984) [a1].zip 2017-04-21 16:14 25 Kb156
Knight Lore (UK) (1984) [a2].zip 2017-04-21 16:14 25 Kb152
Knight Moves (F) (19xx) (Disk 1 of 2).zip 2017-04-21 16:14 60 Kb149
Knight Moves (F) (19xx) (Disk 2 of 2).zip 2017-04-21 16:14 83 Kb151
Knight Orc (E) - Disk 1A.dsk 2017-04-21 16:14 194 Kb151
Knight Orc (E) - Disk 1B.dsk 2017-04-21 16:14 199 Kb152
Knight Orc (UK) (1987) (Disk 1 of 2).zip 2017-04-21 16:14 119 Kb160
Knight Orc (UK) (1987) (Disk 2 of 2).zip 2017-04-21 16:14 110 Kb153
Knight Rider (E).cdt 2017-04-21 16:14 45 Kb154
Knight Rider (UK) (1986).zip 2017-04-21 16:14 20 Kb147
Knight Rider (UK) (1986) [h1].zip 2017-04-21 16:14 32 Kb149
Knight Rider (UK) (1986) [h2].zip 2017-04-21 16:14 21 Kb153
Knight Tyme (E).cdt 2017-04-21 16:14 57 Kb152
Knight Tyme (UK) (1986).zip 2017-04-21 16:14 31 Kb158
Knight Tyme (UK) (1986) [a1].zip 2017-04-21 16:14 31 Kb153
Knight Tyme (UK) (1986) [t1].zip 2017-04-21 16:14 31 Kb145
Knightmare (E).dsk 2017-04-21 16:14 213 Kb160
Knightmare (UK) (1987).zip 2017-04-21 16:14 29 Kb147
Knightmare (UK) (1987) [a1].zip 2017-04-21 16:14 30 Kb146
Knightmare (UK) (1987) [a2].zip 2017-04-21 16:14 30 Kb155
Knightmare (UK) (1987) [t1].zip 2017-04-21 16:14 33 Kb149
Know (G).dsk 2017-04-21 16:14 192 Kb166
Kobayashi Naru (UK) (19xx).zip 2017-04-21 16:14 31 Kb160
Kobayashi Naru (UK) (1987).zip 2017-04-21 16:14 31 Kb162
Kobayashi Naru (UK) (1987) [a1].zip 2017-04-21 16:14 31 Kb149
Kobayashi Naru (UK) (1987) [a2].zip 2017-04-21 16:14 48 Kb170
Kokotoni Wilf (UK) (19xx).zip 2017-04-21 16:14 137 Kb157
Kokotoni Wilf (UK) (19xx) [a1].zip 2017-04-21 16:14 35 Kb157
Kokotoni Wilf (UK) (19xx) [f1][t1].zip 2017-04-21 16:14 37 Kb149
Konami's Golf (UK) (1986).zip 2017-04-21 16:14 24 Kb145
Konami's Golf (UK) (1986) [a1].zip 2017-04-21 16:14 24 Kb149
Konami's Golf (UK) (1986) [a2].zip 2017-04-21 16:14 26 Kb150
Konami Coin-op Hits (UK) (19xx) (Disk 1 of 2).zip 2017-04-21 16:14 50 Kb152
Konami Coin-op Hits (UK) (19xx) (Disk 1 of 2) [a1].zip 2017-04-21 16:14 50 Kb139
Konami Coin-op Hits (UK) (19xx) (Disk 2 of 2).zip 2017-04-21 16:14 65 Kb144
Konami Coin-op Hits (UK) (19xx) (Disk 2 of 2) [a1].zip 2017-04-21 16:14 65 Kb163
Konami Coin-op Hits (UK) (19xx) (Disk 2 of 2) [a2].zip 2017-04-21 16:14 65 Kb143
Kong Strikes Back (UK) (1985).zip 2017-04-21 16:14 21 Kb164
Kong Strikes Back (UK) (1985) [a1].zip 2017-04-21 16:14 21 Kb162
Kong Strikes Back (UK) (1985) [a2].zip 2017-04-21 16:14 23 Kb151
Koronis Rift (E).dsk 2017-04-21 16:14 186 Kb155
Koronis Rift (UK) (1987).zip 2017-04-21 16:14 57 Kb153
Krakout (E).cdt 2017-04-21 16:14 64 Kb162
Krakout (E).dsk 2017-04-21 16:14 171 Kb155
Krakout (UK) (1987).zip 2017-04-21 16:14 31 Kb156
Krakout (UK) (1987) [h1].zip 2017-04-21 16:14 34 Kb154
Kristal (F).dsk 2017-04-21 16:14 191 Kb155
Kristal (UK) (1985).zip 2017-04-21 16:14 16 Kb160
Kristax (UK) (1989).zip 2017-04-21 16:14 9 Kb158
Krypton Factor (UK) (1987) (Disk 1 of 2).zip 2017-04-21 16:14 52 Kb145
Krypton Factor (UK) (1987) (Disk 1 of 2) [a1].zip 2017-04-21 16:14 47 Kb154
Krypton Factor (UK) (1987) (Disk 2 of 2).zip 2017-04-21 16:14 5 Kb151
Krypton Factor (UK) (1987) (Disk 2 of 2) [a1].zip 2017-04-21 16:14 21 Kb146
Kung-Fu (UK) (1986).zip 2017-04-21 16:14 19 Kb153
Kung-Fu Master (E).dsk 2017-04-21 16:14 191 Kb148
Kung-Fu Master (UK) (1986).zip 2017-04-21 16:14 28 Kb162
Kung-Fu Master (UK) (1986) [h1].zip 2017-04-21 16:14 22 Kb152
Kwah (UK) (1987).zip 2017-04-21 16:14 36 Kb139
Kwik Snax (E).cdt 2017-04-21 16:14 65 Kb164
Kwik Snax (UK) (1990).zip 2017-04-21 16:14 22 Kb147
Kwik Snax (UK) (1990) [f1].zip 2017-04-21 16:14 33 Kb159
Kwik Snax (UK) (1990) [h1].zip 2017-04-21 16:14 41 Kb152
Kwik Snax (UK) (1990) [t1].zip 2017-04-21 16:14 33 Kb154
kobayashi Naru (E).cdt 2017-04-21 16:14 74 Kb152
180 Files
-JavaCPC -demo -emu -j-cpc_ani -tools 0-9 A B C D E F G H I J K L M N O P Q R S T U V W X Y Z ZZZ_UNK roms